Manchester Airport Manchester US
ICAO: KMHT
IATA: MHT
Category: Large
Scheduled Services: Yes

Elevation: 266 ft
TransAlt. 18000 ft.

Airport Communications:
Boston Approach/Departure (Below 4000'):124.9
Boston Approach/Departure (4000'-10000'):134.75
ASOS:119.55
ATIS:119.55
CLNC DEL:135.9
GND:121.9
BANGOR RDO:114.4
TWR:121.3
UNICOM:122.95

KMHT Zoom In..

Runways:

(A) RW 06 length 7650 ft width 150 ft
ILS 109.95 / hdg 58

(B) RW 17 length 9250 ft width 150 ft
ILS 109.10 / hdg 173

(C) RW 24 length 7650 ft width 150 ft
---- / hdg 238

(D) RW 35 length 9250 ft width 150 ft
ILS 109.10 / hdg 353

Location; KMHT
Day. 22 / Time. 23.53 Zulu
* Altimeter: 30.28
* Temperature: 4/° c. 39.2°f.
* Wind from: 030° Speed 07 kn.
Dewpoint: 01° c.
Visibility: 4 Statute Miles.
Clouds: Overcast 600 ft.
Conditions: Mist.

KMHT 222353Z 03007KT 4SM -FZDZ BR OVC006 M02/M03 A3028 RMK AO2 SLP271 4/001 P0000 60000 I1000 I6001 T10221033 10011 21022 58004


Wind From 030°
Speed 07 kn.

YouTube Music Video
 
jpsmedia.com for Web Design  worldairports.se 2018   terms of use